Irma, Wisconsin
Current Conditions -  °F | °C
As of 10:15 AM on Thursday 27 Nov 2014 (Local Time) from KTKV Reporting Station
Clear Clear  
Wind Chill:   Ceiling: Unl
Heat Index:   Visibility: 10mi
Dew Point:   Wind: 0mph
Humidity: 75%   Direction: NA
Pressure: 30.35"   Gusts: NA
Location:  45.35°N, 89.67°W
Report Text: KTKV 271615Z AUTO 00000KT 10SM CLR M13/M17 A3035 RMK AO2 T11341169
Loading
Personal Weather Stations






























Interactive Weather Map New forecast layout! Learn more

10-Day Weather Forecast

Advertisements
Track Severe Weather on mobile